This is the latest recevied weather packets stored in our database for station/object K4DFD-13. If no packets are shown the sender has not sent any weather packets the latest 10 day(s).
| Time | Temp. | Humidity | Pressure | Rain* | Wind** | Luminosity | Snow |
|---|---|---|---|---|---|---|---|
| 1777397239 | 17.78° C | 78% | 1018.2 hPa | 0 mm | - | - | - |
| 1777396939 | 17.78° C | 77% | 1018.4 hPa | 0 mm | - | - | - |
| 1777396037 | 17.22° C | 78% | 1018.6 hPa | 0 mm | - | - | - |
| 1777395436 | 17.22° C | 77% | 1018.7 hPa | 0 mm | - | - | - |
| 1777395136 | 17.22° C | 78% | 1018.6 hPa | 0 mm | - | - | - |
| 1777394235 | 16.67° C | 79% | 1018.9 hPa | 0 mm | - | - | - |
| 1777393934 | 16.67° C | 80% | 1019.1 hPa | 0 mm | - | - | - |
| 1777393634 | 16.11° C | 80% | 1019.2 hPa | 0 mm | - | - | - |
| 1777392433 | 15.56° C | 81% | 1019 hPa | 0 mm | - | - | - |
| 1777391832 | 15.56° C | 81% | 1019.2 hPa | 0 mm | - | - | - |
| 1777390931 | 15.56° C | 82% | 1019.2 hPa | 0 mm | - | - | - |
| 1777390630 | 15.56° C | 83% | 1019.1 hPa | 0 mm | - | - | - |
| 1777390330 | 15.56° C | 82% | 1019.2 hPa | 0 mm | - | - | - |
| 1777389729 | 15° C | 84% | 1019.1 hPa | 0 mm | - | - | - |
| 1777388828 | 15° C | 84% | 1018.9 hPa | 0 mm | - | - | - |
| 1777388528 | 15° C | 83% | 1018.6 hPa | 0 mm | - | - | - |
| 1777387026 | 13.89° C | 87% | 1018.6 hPa | 0 mm | - | - | - |
| 1777385223 | 12.22° C | 92% | 1018.9 hPa | 0 mm | - | - | - |
| 1777384322 | 12.22° C | 92% | 1019.2 hPa | 0 mm | - | - | - |
| 1777383420 | 12.22° C | 93% | 1019.4 hPa | 0 mm | - | - | - |
| 1777383120 | 11.67° C | 94% | 1019.7 hPa | 0 mm | - | - | - |
| 1777382820 | 11.67° C | 94% | 1019.7 hPa | 0 mm | - | - | - |
| 1777382219 | 11.67° C | 95% | 1019.8 hPa | 0 mm | - | - | - |
| 1777379816 | 10.56° C | 97% | 1020.8 hPa | 0 mm | - | - | - |
| 1777379216 | 10.56° C | 98% | 1020.9 hPa | 0 mm | - | - | - |
* Rain latest hour (hover to see other rain measurements)
** Current wind speed in m/s (hover to see current wind gust speed)